<?xml version="1.0" encoding="UTF-8" standalone="no" ?>
<gpx xmlns="http://www.topografix.com/GPX/1/1" xmlns:xsi="http://www.w3.org/2001/XMLSchema-instance" xsi:schemaLocation="http://www.topografix.com/GPX/1/1 http://www.topografix.com/GPX/1/1/gpx.xsd" version="1.1" creator="VisuGPX - https://www.visugpx.com">
  <metadata>
    <name>3km Biviers</name>
  </metadata>
  <trk>
    <name><![CDATA[3km Biviers]]></name>
    <trkseg>
      <trkpt lat="45.23765" lon="5.80197">
        <ele>400</ele>
        <time>2025-03-27T14:33:23Z</time>
      </trkpt>
      <trkpt lat="45.23765" lon="5.80205">
        <ele>399.7</ele>
        <time>2025-03-27T14:33:31Z</time>
      </trkpt>
      <trkpt lat="45.23764" lon="5.80212">
        <ele>399.7</ele>
        <time>2025-03-27T14:33:34Z</time>
      </trkpt>
      <trkpt lat="45.23765" lon="5.80218">
        <ele>400</ele>
        <time>2025-03-27T14:33:37Z</time>
      </trkpt>
      <trkpt lat="45.23765" lon="5.80225">
        <ele>399.8</ele>
        <time>2025-03-27T14:33:40Z</time>
      </trkpt>
      <trkpt lat="45.23765" lon="5.80233">
        <ele>399.8</ele>
        <time>2025-03-27T14:33:44Z</time>
      </trkpt>
      <trkpt lat="45.23764" lon="5.8024">
        <ele>399.9</ele>
        <time>2025-03-27T14:33:47Z</time>
      </trkpt>
      <trkpt lat="45.23764" lon="5.80247">
        <ele>400.1</ele>
        <time>2025-03-27T14:33:50Z</time>
      </trkpt>
      <trkpt lat="45.23762" lon="5.80254">
        <ele>400.2</ele>
        <time>2025-03-27T14:33:54Z</time>
      </trkpt>
      <trkpt lat="45.23762" lon="5.80261">
        <ele>399.1</ele>
        <time>2025-03-27T14:33:57Z</time>
      </trkpt>
      <trkpt lat="45.23762" lon="5.80268">
        <ele>400.2</ele>
        <time>2025-03-27T14:34:02Z</time>
      </trkpt>
      <trkpt lat="45.23763" lon="5.80276">
        <ele>399.9</ele>
        <time>2025-03-27T14:34:06Z</time>
      </trkpt>
      <trkpt lat="45.23765" lon="5.80284">
        <ele>399.3</ele>
        <time>2025-03-27T14:34:10Z</time>
      </trkpt>
      <trkpt lat="45.23767" lon="5.8029">
        <ele>398.5</ele>
        <time>2025-03-27T14:34:13Z</time>
      </trkpt>
      <trkpt lat="45.23769" lon="5.80298">
        <ele>397.6</ele>
        <time>2025-03-27T14:34:17Z</time>
      </trkpt>
      <trkpt lat="45.23772" lon="5.80303">
        <ele>396.9</ele>
        <time>2025-03-27T14:34:20Z</time>
      </trkpt>
      <trkpt lat="45.23771" lon="5.80309">
        <ele>395.5</ele>
        <time>2025-03-27T14:34:28Z</time>
      </trkpt>
      <trkpt lat="45.23775" lon="5.80316">
        <ele>394.5</ele>
        <time>2025-03-27T14:34:29Z</time>
      </trkpt>
      <trkpt lat="45.2378" lon="5.80323">
        <ele>394.1</ele>
        <time>2025-03-27T14:34:31Z</time>
      </trkpt>
      <trkpt lat="45.23784" lon="5.80331">
        <ele>392.8</ele>
        <time>2025-03-27T14:34:33Z</time>
      </trkpt>
      <trkpt lat="45.23788" lon="5.8034">
        <ele>392.5</ele>
        <time>2025-03-27T14:34:35Z</time>
      </trkpt>
      <trkpt lat="45.2379" lon="5.8035">
        <ele>392.2</ele>
        <time>2025-03-27T14:34:37Z</time>
      </trkpt>
      <trkpt lat="45.23789" lon="5.8036">
        <ele>390.9</ele>
        <time>2025-03-27T14:34:39Z</time>
      </trkpt>
      <trkpt lat="45.23784" lon="5.80368">
        <ele>389.5</ele>
        <time>2025-03-27T14:34:41Z</time>
      </trkpt>
      <trkpt lat="45.23777" lon="5.80368">
        <ele>388.8</ele>
        <time>2025-03-27T14:34:43Z</time>
      </trkpt>
      <trkpt lat="45.23774" lon="5.80364">
        <ele>388.7</ele>
        <time>2025-03-27T14:34:44Z</time>
      </trkpt>
      <trkpt lat="45.23771" lon="5.80358">
        <ele>388.2</ele>
        <time>2025-03-27T14:34:45Z</time>
      </trkpt>
      <trkpt lat="45.23768" lon="5.80347">
        <ele>388.1</ele>
        <time>2025-03-27T14:34:48Z</time>
      </trkpt>
      <trkpt lat="45.23765" lon="5.80336">
        <ele>388.1</ele>
        <time>2025-03-27T14:34:49Z</time>
      </trkpt>
      <trkpt lat="45.23762" lon="5.80326">
        <ele>387.8</ele>
        <time>2025-03-27T14:34:52Z</time>
      </trkpt>
      <trkpt lat="45.23758" lon="5.80315">
        <ele>387.9</ele>
        <time>2025-03-27T14:34:54Z</time>
      </trkpt>
      <trkpt lat="45.23755" lon="5.80303">
        <ele>387.8</ele>
        <time>2025-03-27T14:34:55Z</time>
      </trkpt>
      <trkpt lat="45.23753" lon="5.80297">
        <ele>387.7</ele>
        <time>2025-03-27T14:34:57Z</time>
      </trkpt>
      <trkpt lat="45.23749" lon="5.80286">
        <ele>387.2</ele>
        <time>2025-03-27T14:34:58Z</time>
      </trkpt>
      <trkpt lat="45.23745" lon="5.80274">
        <ele>387.1</ele>
        <time>2025-03-27T14:35:00Z</time>
      </trkpt>
      <trkpt lat="45.23743" lon="5.80268">
        <ele>387.2</ele>
        <time>2025-03-27T14:35:02Z</time>
      </trkpt>
      <trkpt lat="45.23742" lon="5.80262">
        <ele>388.2</ele>
        <time>2025-03-27T14:35:03Z</time>
      </trkpt>
      <trkpt lat="45.23738" lon="5.8025">
        <ele>388.2</ele>
        <time>2025-03-27T14:35:04Z</time>
      </trkpt>
      <trkpt lat="45.23736" lon="5.80243">
        <ele>388.2</ele>
        <time>2025-03-27T14:35:05Z</time>
      </trkpt>
      <trkpt lat="45.23733" lon="5.80238">
        <ele>388.1</ele>
        <time>2025-03-27T14:35:07Z</time>
      </trkpt>
      <trkpt lat="45.23731" lon="5.80228">
        <ele>387.7</ele>
        <time>2025-03-27T14:35:08Z</time>
      </trkpt>
      <trkpt lat="45.23728" lon="5.80222">
        <ele>387.7</ele>
        <time>2025-03-27T14:35:09Z</time>
      </trkpt>
      <trkpt lat="45.23726" lon="5.80216">
        <ele>387.7</ele>
        <time>2025-03-27T14:35:10Z</time>
      </trkpt>
      <trkpt lat="45.23721" lon="5.80207">
        <ele>387.2</ele>
        <time>2025-03-27T14:35:13Z</time>
      </trkpt>
      <trkpt lat="45.23715" lon="5.80197">
        <ele>387.3</ele>
        <time>2025-03-27T14:35:14Z</time>
      </trkpt>
      <trkpt lat="45.23713" lon="5.80192">
        <ele>387.9</ele>
        <time>2025-03-27T14:35:15Z</time>
      </trkpt>
      <trkpt lat="45.23711" lon="5.80186">
        <ele>387.3</ele>
        <time>2025-03-27T14:35:17Z</time>
      </trkpt>
      <trkpt lat="45.23705" lon="5.80176">
        <ele>386.3</ele>
        <time>2025-03-27T14:35:18Z</time>
      </trkpt>
      <trkpt lat="45.23701" lon="5.80168">
        <ele>386.1</ele>
        <time>2025-03-27T14:35:20Z</time>
      </trkpt>
      <trkpt lat="45.23697" lon="5.8016">
        <ele>385.1</ele>
        <time>2025-03-27T14:35:22Z</time>
      </trkpt>
      <trkpt lat="45.23693" lon="5.8015">
        <ele>385.4</ele>
        <time>2025-03-27T14:35:24Z</time>
      </trkpt>
      <trkpt lat="45.2369" lon="5.80139">
        <ele>384.2</ele>
        <time>2025-03-27T14:35:26Z</time>
      </trkpt>
      <trkpt lat="45.23687" lon="5.80135">
        <ele>384.2</ele>
        <time>2025-03-27T14:35:28Z</time>
      </trkpt>
      <trkpt lat="45.23681" lon="5.8013">
        <ele>384.1</ele>
        <time>2025-03-27T14:35:28Z</time>
      </trkpt>
      <trkpt lat="45.23679" lon="5.80124">
        <ele>384.3</ele>
        <time>2025-03-27T14:35:29Z</time>
      </trkpt>
      <trkpt lat="45.23676" lon="5.80115">
        <ele>386.2</ele>
        <time>2025-03-27T14:35:31Z</time>
      </trkpt>
      <trkpt lat="45.23674" lon="5.80106">
        <ele>386.2</ele>
        <time>2025-03-27T14:35:33Z</time>
      </trkpt>
      <trkpt lat="45.2367" lon="5.80096">
        <ele>385.7</ele>
        <time>2025-03-27T14:35:36Z</time>
      </trkpt>
      <trkpt lat="45.23669" lon="5.80087">
        <ele>385.6</ele>
        <time>2025-03-27T14:35:37Z</time>
      </trkpt>
      <trkpt lat="45.23669" lon="5.8008">
        <ele>387.5</ele>
        <time>2025-03-27T14:35:54Z</time>
      </trkpt>
      <trkpt lat="45.23668" lon="5.80073">
        <ele>385.3</ele>
        <time>2025-03-27T14:35:56Z</time>
      </trkpt>
      <trkpt lat="45.23666" lon="5.80064">
        <ele>385.4</ele>
        <time>2025-03-27T14:35:58Z</time>
      </trkpt>
      <trkpt lat="45.23664" lon="5.80044">
        <ele>385.2</ele>
        <time>2025-03-27T14:36:00Z</time>
      </trkpt>
      <trkpt lat="45.23664" lon="5.80037">
        <ele>385.1</ele>
        <time>2025-03-27T14:36:01Z</time>
      </trkpt>
      <trkpt lat="45.23663" lon="5.80028">
        <ele>384.5</ele>
        <time>2025-03-27T14:36:02Z</time>
      </trkpt>
      <trkpt lat="45.2366" lon="5.8002">
        <ele>383.8</ele>
        <time>2025-03-27T14:36:03Z</time>
      </trkpt>
      <trkpt lat="45.23658" lon="5.80012">
        <ele>383.3</ele>
        <time>2025-03-27T14:36:04Z</time>
      </trkpt>
      <trkpt lat="45.23654" lon="5.80005">
        <ele>382.1</ele>
        <time>2025-03-27T14:36:05Z</time>
      </trkpt>
      <trkpt lat="45.23651" lon="5.79999">
        <ele>381.1</ele>
        <time>2025-03-27T14:36:06Z</time>
      </trkpt>
      <trkpt lat="45.23647" lon="5.79995">
        <ele>380.6</ele>
        <time>2025-03-27T14:36:07Z</time>
      </trkpt>
      <trkpt lat="45.23644" lon="5.7999">
        <ele>377.7</ele>
        <time>2025-03-27T14:36:08Z</time>
      </trkpt>
      <trkpt lat="45.2364" lon="5.79985">
        <ele>376.5</ele>
        <time>2025-03-27T14:36:09Z</time>
      </trkpt>
      <trkpt lat="45.23635" lon="5.7998">
        <ele>375.5</ele>
        <time>2025-03-27T14:36:10Z</time>
      </trkpt>
      <trkpt lat="45.2363" lon="5.79976">
        <ele>374.7</ele>
        <time>2025-03-27T14:36:11Z</time>
      </trkpt>
      <trkpt lat="45.23624" lon="5.79971">
        <ele>374.5</ele>
        <time>2025-03-27T14:36:12Z</time>
      </trkpt>
      <trkpt lat="45.23618" lon="5.79969">
        <ele>373.5</ele>
        <time>2025-03-27T14:36:14Z</time>
      </trkpt>
      <trkpt lat="45.23612" lon="5.79969">
        <ele>371.3</ele>
        <time>2025-03-27T14:36:14Z</time>
      </trkpt>
      <trkpt lat="45.23605" lon="5.79967">
        <ele>370.5</ele>
        <time>2025-03-27T14:36:15Z</time>
      </trkpt>
      <trkpt lat="45.23599" lon="5.79966">
        <ele>370.4</ele>
        <time>2025-03-27T14:36:16Z</time>
      </trkpt>
      <trkpt lat="45.23592" lon="5.79966">
        <ele>369.9</ele>
        <time>2025-03-27T14:36:17Z</time>
      </trkpt>
      <trkpt lat="45.23586" lon="5.79967">
        <ele>369.8</ele>
        <time>2025-03-27T14:36:18Z</time>
      </trkpt>
      <trkpt lat="45.23579" lon="5.79967">
        <ele>369.6</ele>
        <time>2025-03-27T14:36:19Z</time>
      </trkpt>
      <trkpt lat="45.23572" lon="5.79967">
        <ele>369.7</ele>
        <time>2025-03-27T14:36:20Z</time>
      </trkpt>
      <trkpt lat="45.23565" lon="5.79967">
        <ele>369.8</ele>
        <time>2025-03-27T14:36:21Z</time>
      </trkpt>
      <trkpt lat="45.23559" lon="5.79967">
        <ele>369.3</ele>
        <time>2025-03-27T14:36:22Z</time>
      </trkpt>
      <trkpt lat="45.23552" lon="5.79967">
        <ele>369.1</ele>
        <time>2025-03-27T14:36:24Z</time>
      </trkpt>
      <trkpt lat="45.23546" lon="5.79967">
        <ele>368.4</ele>
        <time>2025-03-27T14:36:24Z</time>
      </trkpt>
      <trkpt lat="45.23539" lon="5.79967">
        <ele>368.2</ele>
        <time>2025-03-27T14:36:25Z</time>
      </trkpt>
      <trkpt lat="45.23533" lon="5.79967">
        <ele>367.8</ele>
        <time>2025-03-27T14:36:26Z</time>
      </trkpt>
      <trkpt lat="45.23527" lon="5.79966">
        <ele>367.8</ele>
        <time>2025-03-27T14:36:27Z</time>
      </trkpt>
      <trkpt lat="45.23521" lon="5.79966">
        <ele>367.8</ele>
        <time>2025-03-27T14:36:29Z</time>
      </trkpt>
      <trkpt lat="45.23514" lon="5.79966">
        <ele>367.5</ele>
        <time>2025-03-27T14:36:29Z</time>
      </trkpt>
      <trkpt lat="45.23508" lon="5.79966">
        <ele>366.7</ele>
        <time>2025-03-27T14:36:30Z</time>
      </trkpt>
      <trkpt lat="45.23502" lon="5.79966">
        <ele>366.7</ele>
        <time>2025-03-27T14:36:31Z</time>
      </trkpt>
      <trkpt lat="45.23496" lon="5.79967">
        <ele>366.3</ele>
        <time>2025-03-27T14:36:32Z</time>
      </trkpt>
      <trkpt lat="45.2349" lon="5.79967">
        <ele>366.1</ele>
        <time>2025-03-27T14:36:33Z</time>
      </trkpt>
      <trkpt lat="45.23485" lon="5.79967">
        <ele>365.5</ele>
        <time>2025-03-27T14:36:34Z</time>
      </trkpt>
      <trkpt lat="45.23478" lon="5.79967">
        <ele>365.1</ele>
        <time>2025-03-27T14:36:36Z</time>
      </trkpt>
      <trkpt lat="45.23471" lon="5.79969">
        <ele>364.8</ele>
        <time>2025-03-27T14:36:40Z</time>
      </trkpt>
      <trkpt lat="45.23468" lon="5.79974">
        <ele>364</ele>
        <time>2025-03-27T14:36:44Z</time>
      </trkpt>
      <trkpt lat="45.23471" lon="5.79981">
        <ele>364.4</ele>
        <time>2025-03-27T14:36:48Z</time>
      </trkpt>
      <trkpt lat="45.23471" lon="5.7999">
        <ele>362.6</ele>
        <time>2025-03-27T14:36:51Z</time>
      </trkpt>
      <trkpt lat="45.2347" lon="5.79997">
        <ele>362</ele>
        <time>2025-03-27T14:36:53Z</time>
      </trkpt>
      <trkpt lat="45.23469" lon="5.80004">
        <ele>361.9</ele>
        <time>2025-03-27T14:36:55Z</time>
      </trkpt>
      <trkpt lat="45.23465" lon="5.80011">
        <ele>361.9</ele>
        <time>2025-03-27T14:36:58Z</time>
      </trkpt>
      <trkpt lat="45.23461" lon="5.80018">
        <ele>360.1</ele>
        <time>2025-03-27T14:37:00Z</time>
      </trkpt>
      <trkpt lat="45.23457" lon="5.80024">
        <ele>358.7</ele>
        <time>2025-03-27T14:37:03Z</time>
      </trkpt>
      <trkpt lat="45.23453" lon="5.80029">
        <ele>358</ele>
        <time>2025-03-27T14:37:06Z</time>
      </trkpt>
      <trkpt lat="45.23448" lon="5.80034">
        <ele>357.8</ele>
        <time>2025-03-27T14:37:09Z</time>
      </trkpt>
      <trkpt lat="45.23443" lon="5.80041">
        <ele>357.5</ele>
        <time>2025-03-27T14:37:11Z</time>
      </trkpt>
      <trkpt lat="45.23439" lon="5.80048">
        <ele>357.1</ele>
        <time>2025-03-27T14:37:14Z</time>
      </trkpt>
      <trkpt lat="45.23435" lon="5.80055">
        <ele>356.7</ele>
        <time>2025-03-27T14:37:15Z</time>
      </trkpt>
      <trkpt lat="45.23431" lon="5.8006">
        <ele>357.3</ele>
        <time>2025-03-27T14:37:18Z</time>
      </trkpt>
      <trkpt lat="45.23427" lon="5.80065">
        <ele>357.1</ele>
        <time>2025-03-27T14:37:20Z</time>
      </trkpt>
      <trkpt lat="45.23423" lon="5.80073">
        <ele>357</ele>
        <time>2025-03-27T14:37:22Z</time>
      </trkpt>
      <trkpt lat="45.2342" lon="5.80079">
        <ele>356.8</ele>
        <time>2025-03-27T14:37:24Z</time>
      </trkpt>
      <trkpt lat="45.23417" lon="5.80087">
        <ele>357.3</ele>
        <time>2025-03-27T14:37:26Z</time>
      </trkpt>
      <trkpt lat="45.23416" lon="5.80095">
        <ele>354.7</ele>
        <time>2025-03-27T14:37:28Z</time>
      </trkpt>
      <trkpt lat="45.23416" lon="5.80102">
        <ele>350.8</ele>
        <time>2025-03-27T14:37:30Z</time>
      </trkpt>
      <trkpt lat="45.23412" lon="5.80109">
        <ele>347.6</ele>
        <time>2025-03-27T14:37:33Z</time>
      </trkpt>
      <trkpt lat="45.23409" lon="5.80113">
        <ele>346.5</ele>
        <time>2025-03-27T14:37:35Z</time>
      </trkpt>
      <trkpt lat="45.23406" lon="5.80119">
        <ele>346.1</ele>
        <time>2025-03-27T14:37:37Z</time>
      </trkpt>
      <trkpt lat="45.23403" lon="5.80127">
        <ele>347.6</ele>
        <time>2025-03-27T14:37:41Z</time>
      </trkpt>
      <trkpt lat="45.23403" lon="5.80135">
        <ele>347.2</ele>
        <time>2025-03-27T14:37:43Z</time>
      </trkpt>
      <trkpt lat="45.23402" lon="5.80143">
        <ele>346.1</ele>
        <time>2025-03-27T14:37:45Z</time>
      </trkpt>
      <trkpt lat="45.234" lon="5.80152">
        <ele>346</ele>
        <time>2025-03-27T14:37:49Z</time>
      </trkpt>
      <trkpt lat="45.23398" lon="5.80159">
        <ele>346.5</ele>
        <time>2025-03-27T14:37:50Z</time>
      </trkpt>
      <trkpt lat="45.23395" lon="5.80168">
        <ele>347.7</ele>
        <time>2025-03-27T14:37:52Z</time>
      </trkpt>
      <trkpt lat="45.23392" lon="5.80175">
        <ele>348</ele>
        <time>2025-03-27T14:37:54Z</time>
      </trkpt>
      <trkpt lat="45.23387" lon="5.8018">
        <ele>346.8</ele>
        <time>2025-03-27T14:37:56Z</time>
      </trkpt>
      <trkpt lat="45.23382" lon="5.80185">
        <ele>345.9</ele>
        <time>2025-03-27T14:37:59Z</time>
      </trkpt>
      <trkpt lat="45.23377" lon="5.80191">
        <ele>345.9</ele>
        <time>2025-03-27T14:38:00Z</time>
      </trkpt>
      <trkpt lat="45.23373" lon="5.80196">
        <ele>345</ele>
        <time>2025-03-27T14:38:02Z</time>
      </trkpt>
      <trkpt lat="45.23371" lon="5.80203">
        <ele>343.7</ele>
        <time>2025-03-27T14:38:05Z</time>
      </trkpt>
      <trkpt lat="45.23374" lon="5.80211">
        <ele>343.6</ele>
        <time>2025-03-27T14:38:07Z</time>
      </trkpt>
      <trkpt lat="45.23378" lon="5.80217">
        <ele>342.2</ele>
        <time>2025-03-27T14:38:09Z</time>
      </trkpt>
      <trkpt lat="45.23382" lon="5.80226">
        <ele>341</ele>
        <time>2025-03-27T14:38:11Z</time>
      </trkpt>
      <trkpt lat="45.23385" lon="5.80235">
        <ele>340.5</ele>
        <time>2025-03-27T14:38:13Z</time>
      </trkpt>
      <trkpt lat="45.23389" lon="5.80245">
        <ele>340.3</ele>
        <time>2025-03-27T14:38:15Z</time>
      </trkpt>
      <trkpt lat="45.23392" lon="5.80256">
        <ele>340.3</ele>
        <time>2025-03-27T14:38:17Z</time>
      </trkpt>
      <trkpt lat="45.23395" lon="5.80267">
        <ele>339.6</ele>
        <time>2025-03-27T14:38:20Z</time>
      </trkpt>
      <trkpt lat="45.23398" lon="5.80273">
        <ele>339.6</ele>
        <time>2025-03-27T14:38:20Z</time>
      </trkpt>
      <trkpt lat="45.23401" lon="5.80278">
        <ele>339.6</ele>
        <time>2025-03-27T14:38:21Z</time>
      </trkpt>
      <trkpt lat="45.23403" lon="5.80284">
        <ele>339.9</ele>
        <time>2025-03-27T14:38:22Z</time>
      </trkpt>
      <trkpt lat="45.23405" lon="5.8029">
        <ele>339.9</ele>
        <time>2025-03-27T14:38:24Z</time>
      </trkpt>
      <trkpt lat="45.23407" lon="5.80296">
        <ele>339.8</ele>
        <time>2025-03-27T14:38:24Z</time>
      </trkpt>
      <trkpt lat="45.2341" lon="5.80301">
        <ele>339.9</ele>
        <time>2025-03-27T14:38:25Z</time>
      </trkpt>
      <trkpt lat="45.23414" lon="5.80312">
        <ele>340.5</ele>
        <time>2025-03-27T14:38:27Z</time>
      </trkpt>
      <trkpt lat="45.23416" lon="5.80318">
        <ele>340.5</ele>
        <time>2025-03-27T14:38:28Z</time>
      </trkpt>
      <trkpt lat="45.23418" lon="5.80324">
        <ele>340.5</ele>
        <time>2025-03-27T14:38:30Z</time>
      </trkpt>
      <trkpt lat="45.2342" lon="5.80329">
        <ele>340.6</ele>
        <time>2025-03-27T14:38:30Z</time>
      </trkpt>
      <trkpt lat="45.23422" lon="5.80335">
        <ele>340.6</ele>
        <time>2025-03-27T14:38:31Z</time>
      </trkpt>
      <trkpt lat="45.23425" lon="5.80341">
        <ele>340.6</ele>
        <time>2025-03-27T14:38:32Z</time>
      </trkpt>
      <trkpt lat="45.23429" lon="5.80352">
        <ele>340.5</ele>
        <time>2025-03-27T14:38:34Z</time>
      </trkpt>
      <trkpt lat="45.23433" lon="5.80363">
        <ele>340.3</ele>
        <time>2025-03-27T14:38:36Z</time>
      </trkpt>
      <trkpt lat="45.23435" lon="5.80369">
        <ele>340.3</ele>
        <time>2025-03-27T14:38:37Z</time>
      </trkpt>
      <trkpt lat="45.23437" lon="5.80375">
        <ele>340.5</ele>
        <time>2025-03-27T14:38:38Z</time>
      </trkpt>
      <trkpt lat="45.2344" lon="5.80381">
        <ele>340.5</ele>
        <time>2025-03-27T14:38:39Z</time>
      </trkpt>
      <trkpt lat="45.23442" lon="5.80387">
        <ele>340.4</ele>
        <time>2025-03-27T14:38:40Z</time>
      </trkpt>
      <trkpt lat="45.23444" lon="5.80392">
        <ele>340.4</ele>
        <time>2025-03-27T14:38:41Z</time>
      </trkpt>
      <trkpt lat="45.23448" lon="5.80403">
        <ele>340.6</ele>
        <time>2025-03-27T14:38:43Z</time>
      </trkpt>
      <trkpt lat="45.23453" lon="5.80414">
        <ele>340.9</ele>
        <time>2025-03-27T14:38:45Z</time>
      </trkpt>
      <trkpt lat="45.23457" lon="5.80425">
        <ele>341.2</ele>
        <time>2025-03-27T14:38:47Z</time>
      </trkpt>
      <trkpt lat="45.23461" lon="5.80435">
        <ele>341.1</ele>
        <time>2025-03-27T14:38:49Z</time>
      </trkpt>
      <trkpt lat="45.23465" lon="5.80446">
        <ele>341.1</ele>
        <time>2025-03-27T14:38:51Z</time>
      </trkpt>
      <trkpt lat="45.2347" lon="5.80456">
        <ele>341.4</ele>
        <time>2025-03-27T14:38:53Z</time>
      </trkpt>
      <trkpt lat="45.23474" lon="5.80466">
        <ele>341.6</ele>
        <time>2025-03-27T14:38:55Z</time>
      </trkpt>
      <trkpt lat="45.23478" lon="5.80476">
        <ele>342</ele>
        <time>2025-03-27T14:38:57Z</time>
      </trkpt>
      <trkpt lat="45.23481" lon="5.80485">
        <ele>342.3</ele>
        <time>2025-03-27T14:38:59Z</time>
      </trkpt>
      <trkpt lat="45.23483" lon="5.80492">
        <ele>342.5</ele>
        <time>2025-03-27T14:39:01Z</time>
      </trkpt>
      <trkpt lat="45.23486" lon="5.80499">
        <ele>342.5</ele>
        <time>2025-03-27T14:39:03Z</time>
      </trkpt>
      <trkpt lat="45.23488" lon="5.80505">
        <ele>342.5</ele>
        <time>2025-03-27T14:39:06Z</time>
      </trkpt>
      <trkpt lat="45.2349" lon="5.80512">
        <ele>342.4</ele>
        <time>2025-03-27T14:39:07Z</time>
      </trkpt>
      <trkpt lat="45.23493" lon="5.80521">
        <ele>342</ele>
        <time>2025-03-27T14:39:09Z</time>
      </trkpt>
      <trkpt lat="45.23496" lon="5.80532">
        <ele>341.4</ele>
        <time>2025-03-27T14:39:11Z</time>
      </trkpt>
      <trkpt lat="45.23498" lon="5.80539">
        <ele>341.4</ele>
        <time>2025-03-27T14:39:12Z</time>
      </trkpt>
      <trkpt lat="45.235" lon="5.80545">
        <ele>341.3</ele>
        <time>2025-03-27T14:39:13Z</time>
      </trkpt>
      <trkpt lat="45.23502" lon="5.80552">
        <ele>341.3</ele>
        <time>2025-03-27T14:39:14Z</time>
      </trkpt>
      <trkpt lat="45.23504" lon="5.80559">
        <ele>341.2</ele>
        <time>2025-03-27T14:39:16Z</time>
      </trkpt>
      <trkpt lat="45.23506" lon="5.80566">
        <ele>341.2</ele>
        <time>2025-03-27T14:39:16Z</time>
      </trkpt>
      <trkpt lat="45.23508" lon="5.80573">
        <ele>341.2</ele>
        <time>2025-03-27T14:39:17Z</time>
      </trkpt>
      <trkpt lat="45.2351" lon="5.80579">
        <ele>341.2</ele>
        <time>2025-03-27T14:39:18Z</time>
      </trkpt>
      <trkpt lat="45.23512" lon="5.80587">
        <ele>341.1</ele>
        <time>2025-03-27T14:39:20Z</time>
      </trkpt>
      <trkpt lat="45.23513" lon="5.80593">
        <ele>341</ele>
        <time>2025-03-27T14:39:21Z</time>
      </trkpt>
      <trkpt lat="45.23515" lon="5.806">
        <ele>340.7</ele>
        <time>2025-03-27T14:39:21Z</time>
      </trkpt>
      <trkpt lat="45.23517" lon="5.80607">
        <ele>340.7</ele>
        <time>2025-03-27T14:39:22Z</time>
      </trkpt>
      <trkpt lat="45.23519" lon="5.80614">
        <ele>340.4</ele>
        <time>2025-03-27T14:39:23Z</time>
      </trkpt>
      <trkpt lat="45.23521" lon="5.80621">
        <ele>340.4</ele>
        <time>2025-03-27T14:39:24Z</time>
      </trkpt>
      <trkpt lat="45.23523" lon="5.80628">
        <ele>340.3</ele>
        <time>2025-03-27T14:39:25Z</time>
      </trkpt>
      <trkpt lat="45.23526" lon="5.80634">
        <ele>340.2</ele>
        <time>2025-03-27T14:39:26Z</time>
      </trkpt>
      <trkpt lat="45.23528" lon="5.8064">
        <ele>340.2</ele>
        <time>2025-03-27T14:39:27Z</time>
      </trkpt>
      <trkpt lat="45.2353" lon="5.80647">
        <ele>340</ele>
        <time>2025-03-27T14:39:28Z</time>
      </trkpt>
      <trkpt lat="45.23533" lon="5.80653">
        <ele>340</ele>
        <time>2025-03-27T14:39:30Z</time>
      </trkpt>
      <trkpt lat="45.23535" lon="5.80659">
        <ele>339.9</ele>
        <time>2025-03-27T14:39:31Z</time>
      </trkpt>
      <trkpt lat="45.23537" lon="5.80664">
        <ele>339.6</ele>
        <time>2025-03-27T14:39:31Z</time>
      </trkpt>
      <trkpt lat="45.2354" lon="5.8067">
        <ele>339.5</ele>
        <time>2025-03-27T14:39:32Z</time>
      </trkpt>
      <trkpt lat="45.23545" lon="5.80679">
        <ele>339.6</ele>
        <time>2025-03-27T14:39:34Z</time>
      </trkpt>
      <trkpt lat="45.23549" lon="5.80687">
        <ele>339.8</ele>
        <time>2025-03-27T14:39:36Z</time>
      </trkpt>
      <trkpt lat="45.23553" lon="5.80695">
        <ele>339.7</ele>
        <time>2025-03-27T14:39:38Z</time>
      </trkpt>
      <trkpt lat="45.23558" lon="5.80703">
        <ele>339.4</ele>
        <time>2025-03-27T14:39:41Z</time>
      </trkpt>
      <trkpt lat="45.23562" lon="5.80711">
        <ele>339.9</ele>
        <time>2025-03-27T14:39:42Z</time>
      </trkpt>
      <trkpt lat="45.23567" lon="5.80719">
        <ele>340.1</ele>
        <time>2025-03-27T14:39:44Z</time>
      </trkpt>
      <trkpt lat="45.23571" lon="5.80728">
        <ele>340.1</ele>
        <time>2025-03-27T14:39:46Z</time>
      </trkpt>
      <trkpt lat="45.23576" lon="5.80737">
        <ele>339.8</ele>
        <time>2025-03-27T14:39:48Z</time>
      </trkpt>
      <trkpt lat="45.23581" lon="5.80746">
        <ele>339.7</ele>
        <time>2025-03-27T14:39:51Z</time>
      </trkpt>
      <trkpt lat="45.23586" lon="5.80755">
        <ele>340.5</ele>
        <time>2025-03-27T14:39:52Z</time>
      </trkpt>
      <trkpt lat="45.23591" lon="5.80764">
        <ele>340.6</ele>
        <time>2025-03-27T14:39:55Z</time>
      </trkpt>
      <trkpt lat="45.23597" lon="5.80774">
        <ele>340.3</ele>
        <time>2025-03-27T14:39:56Z</time>
      </trkpt>
      <trkpt lat="45.23601" lon="5.80783">
        <ele>340.2</ele>
        <time>2025-03-27T14:39:58Z</time>
      </trkpt>
      <trkpt lat="45.23606" lon="5.80792">
        <ele>340.2</ele>
        <time>2025-03-27T14:40:01Z</time>
      </trkpt>
      <trkpt lat="45.23611" lon="5.80801">
        <ele>340.2</ele>
        <time>2025-03-27T14:40:02Z</time>
      </trkpt>
      <trkpt lat="45.23616" lon="5.8081">
        <ele>340.2</ele>
        <time>2025-03-27T14:40:04Z</time>
      </trkpt>
      <trkpt lat="45.2362" lon="5.8082">
        <ele>340.3</ele>
        <time>2025-03-27T14:40:06Z</time>
      </trkpt>
      <trkpt lat="45.23625" lon="5.80828">
        <ele>340.4</ele>
        <time>2025-03-27T14:40:08Z</time>
      </trkpt>
      <trkpt lat="45.23629" lon="5.80835">
        <ele>340.3</ele>
        <time>2025-03-27T14:40:11Z</time>
      </trkpt>
      <trkpt lat="45.23633" lon="5.80842">
        <ele>340.7</ele>
        <time>2025-03-27T14:40:12Z</time>
      </trkpt>
      <trkpt lat="45.23636" lon="5.80847">
        <ele>341.3</ele>
        <time>2025-03-27T14:40:14Z</time>
      </trkpt>
      <trkpt lat="45.23638" lon="5.80853">
        <ele>342.5</ele>
        <time>2025-03-27T14:41:10Z</time>
      </trkpt>
      <trkpt lat="45.23642" lon="5.80856">
        <ele>341.9</ele>
        <time>2025-03-27T14:41:12Z</time>
      </trkpt>
      <trkpt lat="45.23647" lon="5.80858">
        <ele>342.2</ele>
        <time>2025-03-27T14:41:13Z</time>
      </trkpt>
      <trkpt lat="45.23648" lon="5.80865">
        <ele>342.6</ele>
        <time>2025-03-27T14:41:16Z</time>
      </trkpt>
      <trkpt lat="45.23651" lon="5.80873">
        <ele>342.6</ele>
        <time>2025-03-27T14:41:17Z</time>
      </trkpt>
      <trkpt lat="45.23655" lon="5.80881">
        <ele>342.7</ele>
        <time>2025-03-27T14:41:19Z</time>
      </trkpt>
      <trkpt lat="45.23658" lon="5.80889">
        <ele>342.5</ele>
        <time>2025-03-27T14:41:21Z</time>
      </trkpt>
      <trkpt lat="45.23662" lon="5.80897">
        <ele>342.8</ele>
        <time>2025-03-27T14:41:23Z</time>
      </trkpt>
      <trkpt lat="45.23666" lon="5.80906">
        <ele>342.9</ele>
        <time>2025-03-27T14:41:26Z</time>
      </trkpt>
      <trkpt lat="45.2367" lon="5.80915">
        <ele>342.8</ele>
        <time>2025-03-27T14:41:27Z</time>
      </trkpt>
      <trkpt lat="45.23673" lon="5.80925">
        <ele>343</ele>
        <time>2025-03-27T14:41:30Z</time>
      </trkpt>
      <trkpt lat="45.23676" lon="5.80934">
        <ele>343</ele>
        <time>2025-03-27T14:41:31Z</time>
      </trkpt>
      <trkpt lat="45.2368" lon="5.80944">
        <ele>343.2</ele>
        <time>2025-03-27T14:41:33Z</time>
      </trkpt>
      <trkpt lat="45.23683" lon="5.80955">
        <ele>343.1</ele>
        <time>2025-03-27T14:41:36Z</time>
      </trkpt>
      <trkpt lat="45.23687" lon="5.80965">
        <ele>342.9</ele>
        <time>2025-03-27T14:41:37Z</time>
      </trkpt>
      <trkpt lat="45.2369" lon="5.80975">
        <ele>342.7</ele>
        <time>2025-03-27T14:41:39Z</time>
      </trkpt>
      <trkpt lat="45.23694" lon="5.80986">
        <ele>342.6</ele>
        <time>2025-03-27T14:41:41Z</time>
      </trkpt>
      <trkpt lat="45.23698" lon="5.80996">
        <ele>342.9</ele>
        <time>2025-03-27T14:41:43Z</time>
      </trkpt>
      <trkpt lat="45.23702" lon="5.81007">
        <ele>343.5</ele>
        <time>2025-03-27T14:41:45Z</time>
      </trkpt>
      <trkpt lat="45.23706" lon="5.81018">
        <ele>343.7</ele>
        <time>2025-03-27T14:41:47Z</time>
      </trkpt>
      <trkpt lat="45.2371" lon="5.81028">
        <ele>343.8</ele>
        <time>2025-03-27T14:41:49Z</time>
      </trkpt>
      <trkpt lat="45.23714" lon="5.81038">
        <ele>343.8</ele>
        <time>2025-03-27T14:41:51Z</time>
      </trkpt>
      <trkpt lat="45.23717" lon="5.81048">
        <ele>344</ele>
        <time>2025-03-27T14:41:54Z</time>
      </trkpt>
      <trkpt lat="45.23721" lon="5.81057">
        <ele>344.1</ele>
        <time>2025-03-27T14:41:55Z</time>
      </trkpt>
      <trkpt lat="45.23727" lon="5.81064">
        <ele>344.2</ele>
        <time>2025-03-27T14:41:57Z</time>
      </trkpt>
      <trkpt lat="45.23732" lon="5.81072">
        <ele>343.9</ele>
        <time>2025-03-27T14:41:59Z</time>
      </trkpt>
      <trkpt lat="45.23738" lon="5.8108">
        <ele>343.6</ele>
        <time>2025-03-27T14:42:01Z</time>
      </trkpt>
      <trkpt lat="45.23742" lon="5.81086">
        <ele>343.4</ele>
        <time>2025-03-27T14:42:03Z</time>
      </trkpt>
      <trkpt lat="45.23743" lon="5.81092">
        <ele>343.2</ele>
        <time>2025-03-27T14:42:06Z</time>
      </trkpt>
      <trkpt lat="45.23744" lon="5.811">
        <ele>342.9</ele>
        <time>2025-03-27T14:42:09Z</time>
      </trkpt>
      <trkpt lat="45.23748" lon="5.81105">
        <ele>343.6</ele>
        <time>2025-03-27T14:42:12Z</time>
      </trkpt>
      <trkpt lat="45.2375" lon="5.81112">
        <ele>344.4</ele>
        <time>2025-03-27T14:42:15Z</time>
      </trkpt>
      <trkpt lat="45.23754" lon="5.8112">
        <ele>343.8</ele>
        <time>2025-03-27T14:42:18Z</time>
      </trkpt>
      <trkpt lat="45.23759" lon="5.8113">
        <ele>343</ele>
        <time>2025-03-27T14:42:20Z</time>
      </trkpt>
      <trkpt lat="45.23761" lon="5.81135">
        <ele>342.8</ele>
        <time>2025-03-27T14:42:21Z</time>
      </trkpt>
      <trkpt lat="45.23764" lon="5.81141">
        <ele>342.8</ele>
        <time>2025-03-27T14:42:22Z</time>
      </trkpt>
      <trkpt lat="45.23767" lon="5.81146">
        <ele>342.9</ele>
        <time>2025-03-27T14:42:23Z</time>
      </trkpt>
      <trkpt lat="45.2377" lon="5.81152">
        <ele>343</ele>
        <time>2025-03-27T14:42:24Z</time>
      </trkpt>
      <trkpt lat="45.23772" lon="5.81157">
        <ele>342.7</ele>
        <time>2025-03-27T14:42:26Z</time>
      </trkpt>
      <trkpt lat="45.23778" lon="5.81167">
        <ele>342.6</ele>
        <time>2025-03-27T14:42:27Z</time>
      </trkpt>
      <trkpt lat="45.23783" lon="5.81177">
        <ele>342.6</ele>
        <time>2025-03-27T14:42:29Z</time>
      </trkpt>
      <trkpt lat="45.23789" lon="5.81186">
        <ele>342.2</ele>
        <time>2025-03-27T14:42:31Z</time>
      </trkpt>
      <trkpt lat="45.23794" lon="5.81195">
        <ele>342.1</ele>
        <time>2025-03-27T14:42:33Z</time>
      </trkpt>
      <trkpt lat="45.238" lon="5.812">
        <ele>342.1</ele>
        <time>2025-03-27T14:42:35Z</time>
      </trkpt>
      <trkpt lat="45.23805" lon="5.812">
        <ele>342.2</ele>
        <time>2025-03-27T14:42:37Z</time>
      </trkpt>
      <trkpt lat="45.2381" lon="5.81196">
        <ele>342.6</ele>
        <time>2025-03-27T14:42:39Z</time>
      </trkpt>
      <trkpt lat="45.23813" lon="5.8119">
        <ele>343.2</ele>
        <time>2025-03-27T14:42:42Z</time>
      </trkpt>
      <trkpt lat="45.23817" lon="5.81185">
        <ele>343.9</ele>
        <time>2025-03-27T14:42:43Z</time>
      </trkpt>
      <trkpt lat="45.2382" lon="5.81179">
        <ele>345.1</ele>
        <time>2025-03-27T14:42:45Z</time>
      </trkpt>
      <trkpt lat="45.23824" lon="5.81174">
        <ele>345.5</ele>
        <time>2025-03-27T14:42:47Z</time>
      </trkpt>
      <trkpt lat="45.23827" lon="5.81168">
        <ele>347.6</ele>
        <time>2025-03-27T14:42:49Z</time>
      </trkpt>
      <trkpt lat="45.2383" lon="5.81162">
        <ele>348.6</ele>
        <time>2025-03-27T14:42:52Z</time>
      </trkpt>
      <trkpt lat="45.23832" lon="5.81155">
        <ele>348.9</ele>
        <time>2025-03-27T14:42:53Z</time>
      </trkpt>
      <trkpt lat="45.23834" lon="5.81148">
        <ele>349.9</ele>
        <time>2025-03-27T14:42:55Z</time>
      </trkpt>
      <trkpt lat="45.23838" lon="5.81143">
        <ele>350.7</ele>
        <time>2025-03-27T14:42:57Z</time>
      </trkpt>
      <trkpt lat="45.23842" lon="5.81139">
        <ele>351.2</ele>
        <time>2025-03-27T14:42:59Z</time>
      </trkpt>
      <trkpt lat="45.23845" lon="5.81133">
        <ele>351.5</ele>
        <time>2025-03-27T14:43:02Z</time>
      </trkpt>
      <trkpt lat="45.23849" lon="5.81128">
        <ele>352.3</ele>
        <time>2025-03-27T14:43:03Z</time>
      </trkpt>
      <trkpt lat="45.23853" lon="5.81123">
        <ele>352.6</ele>
        <time>2025-03-27T14:43:05Z</time>
      </trkpt>
      <trkpt lat="45.23856" lon="5.81117">
        <ele>353.5</ele>
        <time>2025-03-27T14:43:07Z</time>
      </trkpt>
      <trkpt lat="45.2386" lon="5.81112">
        <ele>353.9</ele>
        <time>2025-03-27T14:43:09Z</time>
      </trkpt>
      <trkpt lat="45.23863" lon="5.81106">
        <ele>354.8</ele>
        <time>2025-03-27T14:43:11Z</time>
      </trkpt>
      <trkpt lat="45.23866" lon="5.81101">
        <ele>355.3</ele>
        <time>2025-03-27T14:43:13Z</time>
      </trkpt>
      <trkpt lat="45.23869" lon="5.81095">
        <ele>356.6</ele>
        <time>2025-03-27T14:43:16Z</time>
      </trkpt>
      <trkpt lat="45.23872" lon="5.81089">
        <ele>357.2</ele>
        <time>2025-03-27T14:43:17Z</time>
      </trkpt>
      <trkpt lat="45.23876" lon="5.81084">
        <ele>358.3</ele>
        <time>2025-03-27T14:43:19Z</time>
      </trkpt>
      <trkpt lat="45.2388" lon="5.81079">
        <ele>358.4</ele>
        <time>2025-03-27T14:43:21Z</time>
      </trkpt>
      <trkpt lat="45.23883" lon="5.81074">
        <ele>358.4</ele>
        <time>2025-03-27T14:43:23Z</time>
      </trkpt>
      <trkpt lat="45.23887" lon="5.81068">
        <ele>359.2</ele>
        <time>2025-03-27T14:43:26Z</time>
      </trkpt>
      <trkpt lat="45.2389" lon="5.81062">
        <ele>359.8</ele>
        <time>2025-03-27T14:43:27Z</time>
      </trkpt>
      <trkpt lat="45.23893" lon="5.81057">
        <ele>361</ele>
        <time>2025-03-27T14:43:29Z</time>
      </trkpt>
      <trkpt lat="45.23897" lon="5.81052">
        <ele>362</ele>
        <time>2025-03-27T14:43:32Z</time>
      </trkpt>
      <trkpt lat="45.239" lon="5.81048">
        <ele>363.4</ele>
        <time>2025-03-27T14:43:33Z</time>
      </trkpt>
      <trkpt lat="45.23903" lon="5.81043">
        <ele>364</ele>
        <time>2025-03-27T14:43:36Z</time>
      </trkpt>
      <trkpt lat="45.23908" lon="5.81035">
        <ele>365.4</ele>
        <time>2025-03-27T14:43:39Z</time>
      </trkpt>
      <trkpt lat="45.23911" lon="5.8103">
        <ele>366.6</ele>
        <time>2025-03-27T14:43:41Z</time>
      </trkpt>
      <trkpt lat="45.23915" lon="5.81023">
        <ele>367.4</ele>
        <time>2025-03-27T14:43:43Z</time>
      </trkpt>
      <trkpt lat="45.23918" lon="5.81017">
        <ele>367.9</ele>
        <time>2025-03-27T14:43:44Z</time>
      </trkpt>
      <trkpt lat="45.2392" lon="5.81011">
        <ele>365.7</ele>
        <time>2025-03-27T14:43:46Z</time>
      </trkpt>
      <trkpt lat="45.23923" lon="5.81005">
        <ele>366.3</ele>
        <time>2025-03-27T14:43:48Z</time>
      </trkpt>
      <trkpt lat="45.23926" lon="5.80998">
        <ele>367.1</ele>
        <time>2025-03-27T14:43:50Z</time>
      </trkpt>
      <trkpt lat="45.23928" lon="5.80992">
        <ele>367.7</ele>
        <time>2025-03-27T14:43:52Z</time>
      </trkpt>
      <trkpt lat="45.23931" lon="5.80987">
        <ele>367</ele>
        <time>2025-03-27T14:43:54Z</time>
      </trkpt>
      <trkpt lat="45.23935" lon="5.80981">
        <ele>367.6</ele>
        <time>2025-03-27T14:43:56Z</time>
      </trkpt>
      <trkpt lat="45.23938" lon="5.80975">
        <ele>369</ele>
        <time>2025-03-27T14:43:58Z</time>
      </trkpt>
      <trkpt lat="45.23941" lon="5.80968">
        <ele>369.2</ele>
        <time>2025-03-27T14:44:00Z</time>
      </trkpt>
      <trkpt lat="45.23943" lon="5.80962">
        <ele>368.8</ele>
        <time>2025-03-27T14:44:02Z</time>
      </trkpt>
      <trkpt lat="45.23945" lon="5.80956">
        <ele>367.6</ele>
        <time>2025-03-27T14:44:04Z</time>
      </trkpt>
      <trkpt lat="45.23947" lon="5.80949">
        <ele>367.7</ele>
        <time>2025-03-27T14:44:07Z</time>
      </trkpt>
      <trkpt lat="45.2395" lon="5.80943">
        <ele>369.6</ele>
        <time>2025-03-27T14:44:08Z</time>
      </trkpt>
      <trkpt lat="45.23952" lon="5.80936">
        <ele>370.4</ele>
        <time>2025-03-27T14:44:10Z</time>
      </trkpt>
      <trkpt lat="45.23954" lon="5.8093">
        <ele>371.3</ele>
        <time>2025-03-27T14:44:12Z</time>
      </trkpt>
      <trkpt lat="45.23957" lon="5.80924">
        <ele>371.2</ele>
        <time>2025-03-27T14:44:14Z</time>
      </trkpt>
      <trkpt lat="45.23959" lon="5.80917">
        <ele>372.3</ele>
        <time>2025-03-27T14:44:17Z</time>
      </trkpt>
      <trkpt lat="45.23961" lon="5.80909">
        <ele>374.3</ele>
        <time>2025-03-27T14:44:18Z</time>
      </trkpt>
      <trkpt lat="45.23964" lon="5.80903">
        <ele>375.1</ele>
        <time>2025-03-27T14:44:20Z</time>
      </trkpt>
      <trkpt lat="45.23966" lon="5.80897">
        <ele>376.8</ele>
        <time>2025-03-27T14:44:22Z</time>
      </trkpt>
      <trkpt lat="45.23969" lon="5.80891">
        <ele>376.9</ele>
        <time>2025-03-27T14:44:24Z</time>
      </trkpt>
      <trkpt lat="45.23972" lon="5.80886">
        <ele>377.4</ele>
        <time>2025-03-27T14:44:27Z</time>
      </trkpt>
      <trkpt lat="45.23975" lon="5.8088">
        <ele>377.9</ele>
        <time>2025-03-27T14:44:28Z</time>
      </trkpt>
      <trkpt lat="45.23978" lon="5.80873">
        <ele>377.9</ele>
        <time>2025-03-27T14:44:30Z</time>
      </trkpt>
      <trkpt lat="45.23982" lon="5.80868">
        <ele>379</ele>
        <time>2025-03-27T14:44:32Z</time>
      </trkpt>
      <trkpt lat="45.23986" lon="5.80863">
        <ele>379.4</ele>
        <time>2025-03-27T14:44:34Z</time>
      </trkpt>
      <trkpt lat="45.23988" lon="5.80857">
        <ele>380.5</ele>
        <time>2025-03-27T14:44:36Z</time>
      </trkpt>
      <trkpt lat="45.23993" lon="5.8085">
        <ele>381.1</ele>
        <time>2025-03-27T14:44:39Z</time>
      </trkpt>
      <trkpt lat="45.23996" lon="5.80844">
        <ele>381.7</ele>
        <time>2025-03-27T14:44:42Z</time>
      </trkpt>
      <trkpt lat="45.24001" lon="5.80838">
        <ele>381.8</ele>
        <time>2025-03-27T14:44:44Z</time>
      </trkpt>
      <trkpt lat="45.24005" lon="5.80833">
        <ele>383.1</ele>
        <time>2025-03-27T14:44:47Z</time>
      </trkpt>
      <trkpt lat="45.24009" lon="5.80829">
        <ele>383.1</ele>
        <time>2025-03-27T14:44:48Z</time>
      </trkpt>
      <trkpt lat="45.24012" lon="5.80825">
        <ele>383.8</ele>
        <time>2025-03-27T14:44:50Z</time>
      </trkpt>
      <trkpt lat="45.24014" lon="5.80818">
        <ele>384.7</ele>
        <time>2025-03-27T14:44:52Z</time>
      </trkpt>
      <trkpt lat="45.24014" lon="5.8081">
        <ele>385.8</ele>
        <time>2025-03-27T14:44:54Z</time>
      </trkpt>
      <trkpt lat="45.24013" lon="5.80801">
        <ele>385.7</ele>
        <time>2025-03-27T14:44:57Z</time>
      </trkpt>
      <trkpt lat="45.24011" lon="5.80793">
        <ele>385.8</ele>
        <time>2025-03-27T14:44:58Z</time>
      </trkpt>
      <trkpt lat="45.2401" lon="5.80785">
        <ele>386</ele>
        <time>2025-03-27T14:45:00Z</time>
      </trkpt>
      <trkpt lat="45.24008" lon="5.80777">
        <ele>386.1</ele>
        <time>2025-03-27T14:45:02Z</time>
      </trkpt>
      <trkpt lat="45.24006" lon="5.80768">
        <ele>386</ele>
        <time>2025-03-27T14:45:04Z</time>
      </trkpt>
      <trkpt lat="45.24004" lon="5.8076">
        <ele>385.9</ele>
        <time>2025-03-27T14:45:07Z</time>
      </trkpt>
      <trkpt lat="45.24002" lon="5.80751">
        <ele>386.5</ele>
        <time>2025-03-27T14:45:08Z</time>
      </trkpt>
      <trkpt lat="45.24" lon="5.80743">
        <ele>386.7</ele>
        <time>2025-03-27T14:45:10Z</time>
      </trkpt>
      <trkpt lat="45.23997" lon="5.80735">
        <ele>386.7</ele>
        <time>2025-03-27T14:45:12Z</time>
      </trkpt>
      <trkpt lat="45.23995" lon="5.80727">
        <ele>386.5</ele>
        <time>2025-03-27T14:45:14Z</time>
      </trkpt>
      <trkpt lat="45.23992" lon="5.8072">
        <ele>386.8</ele>
        <time>2025-03-27T14:45:16Z</time>
      </trkpt>
      <trkpt lat="45.2399" lon="5.80712">
        <ele>386.5</ele>
        <time>2025-03-27T14:45:18Z</time>
      </trkpt>
      <trkpt lat="45.23989" lon="5.80706">
        <ele>387</ele>
        <time>2025-03-27T14:45:20Z</time>
      </trkpt>
      <trkpt lat="45.23986" lon="5.80699">
        <ele>387.4</ele>
        <time>2025-03-27T14:45:23Z</time>
      </trkpt>
      <trkpt lat="45.23987" lon="5.80689">
        <ele>388.5</ele>
        <time>2025-03-27T14:46:04Z</time>
      </trkpt>
      <trkpt lat="45.23991" lon="5.80685">
        <ele>389.8</ele>
        <time>2025-03-27T14:46:06Z</time>
      </trkpt>
      <trkpt lat="45.23995" lon="5.8068">
        <ele>390.1</ele>
        <time>2025-03-27T14:46:08Z</time>
      </trkpt>
      <trkpt lat="45.23998" lon="5.80674">
        <ele>391.7</ele>
        <time>2025-03-27T14:46:10Z</time>
      </trkpt>
      <trkpt lat="45.24001" lon="5.80669">
        <ele>392.3</ele>
        <time>2025-03-27T14:46:12Z</time>
      </trkpt>
      <trkpt lat="45.24005" lon="5.80665">
        <ele>394.5</ele>
        <time>2025-03-27T14:46:14Z</time>
      </trkpt>
      <trkpt lat="45.24009" lon="5.8066">
        <ele>394.7</ele>
        <time>2025-03-27T14:46:17Z</time>
      </trkpt>
      <trkpt lat="45.24013" lon="5.80656">
        <ele>395.2</ele>
        <time>2025-03-27T14:46:18Z</time>
      </trkpt>
      <trkpt lat="45.24018" lon="5.80652">
        <ele>396</ele>
        <time>2025-03-27T14:46:20Z</time>
      </trkpt>
      <trkpt lat="45.24022" lon="5.80647">
        <ele>397.1</ele>
        <time>2025-03-27T14:46:22Z</time>
      </trkpt>
      <trkpt lat="45.24026" lon="5.80644">
        <ele>397.6</ele>
        <time>2025-03-27T14:46:24Z</time>
      </trkpt>
      <trkpt lat="45.24029" lon="5.80639">
        <ele>399.5</ele>
        <time>2025-03-27T14:46:26Z</time>
      </trkpt>
      <trkpt lat="45.24033" lon="5.80634">
        <ele>400.1</ele>
        <time>2025-03-27T14:46:28Z</time>
      </trkpt>
      <trkpt lat="45.24037" lon="5.80629">
        <ele>400.6</ele>
        <time>2025-03-27T14:46:30Z</time>
      </trkpt>
      <trkpt lat="45.2404" lon="5.80624">
        <ele>401.3</ele>
        <time>2025-03-27T14:46:32Z</time>
      </trkpt>
      <trkpt lat="45.24044" lon="5.80619">
        <ele>401.7</ele>
        <time>2025-03-27T14:46:34Z</time>
      </trkpt>
      <trkpt lat="45.24047" lon="5.80614">
        <ele>402</ele>
        <time>2025-03-27T14:46:37Z</time>
      </trkpt>
      <trkpt lat="45.2405" lon="5.80608">
        <ele>402.9</ele>
        <time>2025-03-27T14:46:38Z</time>
      </trkpt>
      <trkpt lat="45.24053" lon="5.80603">
        <ele>403.8</ele>
        <time>2025-03-27T14:46:40Z</time>
      </trkpt>
      <trkpt lat="45.24054" lon="5.80596">
        <ele>404.6</ele>
        <time>2025-03-27T14:46:42Z</time>
      </trkpt>
      <trkpt lat="45.24053" lon="5.8059">
        <ele>404.4</ele>
        <time>2025-03-27T14:46:44Z</time>
      </trkpt>
      <trkpt lat="45.24048" lon="5.80582">
        <ele>402.8</ele>
        <time>2025-03-27T14:46:47Z</time>
      </trkpt>
      <trkpt lat="45.24045" lon="5.80576">
        <ele>402.4</ele>
        <time>2025-03-27T14:46:49Z</time>
      </trkpt>
      <trkpt lat="45.24041" lon="5.8057">
        <ele>402.4</ele>
        <time>2025-03-27T14:46:51Z</time>
      </trkpt>
      <trkpt lat="45.24037" lon="5.80563">
        <ele>402.5</ele>
        <time>2025-03-27T14:46:53Z</time>
      </trkpt>
      <trkpt lat="45.24034" lon="5.80556">
        <ele>402.4</ele>
        <time>2025-03-27T14:46:55Z</time>
      </trkpt>
      <trkpt lat="45.24031" lon="5.80548">
        <ele>402.6</ele>
        <time>2025-03-27T14:46:57Z</time>
      </trkpt>
      <trkpt lat="45.24028" lon="5.80541">
        <ele>402.8</ele>
        <time>2025-03-27T14:46:59Z</time>
      </trkpt>
      <trkpt lat="45.24025" lon="5.80534">
        <ele>402.9</ele>
        <time>2025-03-27T14:47:02Z</time>
      </trkpt>
      <trkpt lat="45.24023" lon="5.80526">
        <ele>403</ele>
        <time>2025-03-27T14:47:03Z</time>
      </trkpt>
      <trkpt lat="45.24021" lon="5.80519">
        <ele>403.8</ele>
        <time>2025-03-27T14:47:05Z</time>
      </trkpt>
      <trkpt lat="45.24019" lon="5.80511">
        <ele>404.8</ele>
        <time>2025-03-27T14:47:07Z</time>
      </trkpt>
      <trkpt lat="45.2402" lon="5.80505">
        <ele>406.2</ele>
        <time>2025-03-27T14:47:09Z</time>
      </trkpt>
      <trkpt lat="45.2402" lon="5.80497">
        <ele>406.9</ele>
        <time>2025-03-27T14:47:11Z</time>
      </trkpt>
      <trkpt lat="45.24019" lon="5.80488">
        <ele>407.3</ele>
        <time>2025-03-27T14:47:14Z</time>
      </trkpt>
      <trkpt lat="45.24015" lon="5.8048">
        <ele>406.8</ele>
        <time>2025-03-27T14:47:16Z</time>
      </trkpt>
      <trkpt lat="45.24009" lon="5.8047">
        <ele>406.5</ele>
        <time>2025-03-27T14:47:18Z</time>
      </trkpt>
      <trkpt lat="45.24007" lon="5.80464">
        <ele>406.3</ele>
        <time>2025-03-27T14:47:19Z</time>
      </trkpt>
      <trkpt lat="45.24005" lon="5.80454">
        <ele>406.4</ele>
        <time>2025-03-27T14:47:21Z</time>
      </trkpt>
      <trkpt lat="45.24004" lon="5.80447">
        <ele>406.9</ele>
        <time>2025-03-27T14:47:23Z</time>
      </trkpt>
      <trkpt lat="45.24004" lon="5.8044">
        <ele>407.1</ele>
        <time>2025-03-27T14:47:25Z</time>
      </trkpt>
      <trkpt lat="45.24003" lon="5.80433">
        <ele>407.1</ele>
        <time>2025-03-27T14:47:27Z</time>
      </trkpt>
      <trkpt lat="45.24003" lon="5.80426">
        <ele>407.1</ele>
        <time>2025-03-27T14:47:29Z</time>
      </trkpt>
      <trkpt lat="45.24003" lon="5.80419">
        <ele>407.9</ele>
        <time>2025-03-27T14:47:32Z</time>
      </trkpt>
      <trkpt lat="45.24003" lon="5.80412">
        <ele>408.1</ele>
        <time>2025-03-27T14:47:33Z</time>
      </trkpt>
      <trkpt lat="45.24004" lon="5.80404">
        <ele>408.5</ele>
        <time>2025-03-27T14:47:35Z</time>
      </trkpt>
      <trkpt lat="45.24005" lon="5.80397">
        <ele>409.9</ele>
        <time>2025-03-27T14:47:37Z</time>
      </trkpt>
      <trkpt lat="45.24007" lon="5.80391">
        <ele>410.8</ele>
        <time>2025-03-27T14:47:39Z</time>
      </trkpt>
      <trkpt lat="45.24007" lon="5.80383">
        <ele>411.5</ele>
        <time>2025-03-27T14:47:43Z</time>
      </trkpt>
      <trkpt lat="45.24005" lon="5.80375">
        <ele>412.1</ele>
        <time>2025-03-27T14:47:44Z</time>
      </trkpt>
      <trkpt lat="45.24" lon="5.8037">
        <ele>413.4</ele>
        <time>2025-03-27T14:47:47Z</time>
      </trkpt>
      <trkpt lat="45.23995" lon="5.80365">
        <ele>412.7</ele>
        <time>2025-03-27T14:47:48Z</time>
      </trkpt>
      <trkpt lat="45.23989" lon="5.80365">
        <ele>413</ele>
        <time>2025-03-27T14:47:52Z</time>
      </trkpt>
      <trkpt lat="45.23983" lon="5.80368">
        <ele>414.8</ele>
        <time>2025-03-27T14:47:54Z</time>
      </trkpt>
      <trkpt lat="45.23979" lon="5.80367">
        <ele>414.3</ele>
        <time>2025-03-27T14:47:58Z</time>
      </trkpt>
      <trkpt lat="45.23976" lon="5.80361">
        <ele>413.1</ele>
        <time>2025-03-27T14:48:08Z</time>
      </trkpt>
      <trkpt lat="45.23972" lon="5.80359">
        <ele>413.8</ele>
        <time>2025-03-27T14:48:18Z</time>
      </trkpt>
      <trkpt lat="45.23964" lon="5.80358">
        <ele>413.2</ele>
        <time>2025-03-27T14:48:29Z</time>
      </trkpt>
      <trkpt lat="45.2396" lon="5.80353">
        <ele>412.7</ele>
        <time>2025-03-27T14:48:31Z</time>
      </trkpt>
      <trkpt lat="45.23957" lon="5.80346">
        <ele>412.7</ele>
        <time>2025-03-27T14:48:33Z</time>
      </trkpt>
      <trkpt lat="45.23953" lon="5.8034">
        <ele>411.8</ele>
        <time>2025-03-27T14:48:35Z</time>
      </trkpt>
      <trkpt lat="45.23949" lon="5.80333">
        <ele>411.7</ele>
        <time>2025-03-27T14:48:38Z</time>
      </trkpt>
      <trkpt lat="45.23945" lon="5.80326">
        <ele>411.5</ele>
        <time>2025-03-27T14:48:39Z</time>
      </trkpt>
      <trkpt lat="45.2394" lon="5.8032">
        <ele>411.4</ele>
        <time>2025-03-27T14:48:41Z</time>
      </trkpt>
      <trkpt lat="45.23936" lon="5.80313">
        <ele>411.4</ele>
        <time>2025-03-27T14:48:43Z</time>
      </trkpt>
      <trkpt lat="45.2393" lon="5.80306">
        <ele>410.8</ele>
        <time>2025-03-27T14:48:45Z</time>
      </trkpt>
      <trkpt lat="45.23924" lon="5.80298">
        <ele>410.7</ele>
        <time>2025-03-27T14:48:48Z</time>
      </trkpt>
      <trkpt lat="45.23918" lon="5.8029">
        <ele>410.5</ele>
        <time>2025-03-27T14:48:49Z</time>
      </trkpt>
      <trkpt lat="45.23913" lon="5.80281">
        <ele>410.2</ele>
        <time>2025-03-27T14:48:51Z</time>
      </trkpt>
      <trkpt lat="45.23907" lon="5.80273">
        <ele>410.2</ele>
        <time>2025-03-27T14:48:53Z</time>
      </trkpt>
      <trkpt lat="45.23902" lon="5.80266">
        <ele>410.2</ele>
        <time>2025-03-27T14:48:55Z</time>
      </trkpt>
      <trkpt lat="45.23897" lon="5.80259">
        <ele>409.9</ele>
        <time>2025-03-27T14:48:57Z</time>
      </trkpt>
      <trkpt lat="45.23892" lon="5.8025">
        <ele>410.4</ele>
        <time>2025-03-27T14:48:59Z</time>
      </trkpt>
      <trkpt lat="45.23887" lon="5.80241">
        <ele>410.7</ele>
        <time>2025-03-27T14:49:01Z</time>
      </trkpt>
      <trkpt lat="45.23882" lon="5.80233">
        <ele>411.8</ele>
        <time>2025-03-27T14:49:03Z</time>
      </trkpt>
      <trkpt lat="45.23877" lon="5.80227">
        <ele>412</ele>
        <time>2025-03-27T14:49:05Z</time>
      </trkpt>
      <trkpt lat="45.23873" lon="5.80222">
        <ele>412.7</ele>
        <time>2025-03-27T14:49:08Z</time>
      </trkpt>
      <trkpt lat="45.23868" lon="5.80217">
        <ele>413.6</ele>
        <time>2025-03-27T14:49:10Z</time>
      </trkpt>
      <trkpt lat="45.23864" lon="5.80216">
        <ele>413.6</ele>
        <time>2025-03-27T14:49:14Z</time>
      </trkpt>
      <trkpt lat="45.23858" lon="5.80224">
        <ele>412.5</ele>
        <time>2025-03-27T14:49:16Z</time>
      </trkpt>
      <trkpt lat="45.23857" lon="5.80231">
        <ele>412.3</ele>
        <time>2025-03-27T14:49:17Z</time>
      </trkpt>
      <trkpt lat="45.23856" lon="5.8024">
        <ele>410.8</ele>
        <time>2025-03-27T14:49:19Z</time>
      </trkpt>
      <trkpt lat="45.23854" lon="5.80253">
        <ele>409.1</ele>
        <time>2025-03-27T14:49:22Z</time>
      </trkpt>
      <trkpt lat="45.23854" lon="5.80261">
        <ele>408.9</ele>
        <time>2025-03-27T14:49:22Z</time>
      </trkpt>
      <trkpt lat="45.23853" lon="5.80268">
        <ele>407.5</ele>
        <time>2025-03-27T14:49:23Z</time>
      </trkpt>
      <trkpt lat="45.23852" lon="5.80276">
        <ele>406.6</ele>
        <time>2025-03-27T14:49:24Z</time>
      </trkpt>
      <trkpt lat="45.2385" lon="5.80283">
        <ele>405.7</ele>
        <time>2025-03-27T14:49:25Z</time>
      </trkpt>
      <trkpt lat="45.23849" lon="5.80289">
        <ele>405.1</ele>
        <time>2025-03-27T14:49:26Z</time>
      </trkpt>
      <trkpt lat="45.23846" lon="5.80295">
        <ele>404.9</ele>
        <time>2025-03-27T14:49:28Z</time>
      </trkpt>
      <trkpt lat="45.23843" lon="5.80301">
        <ele>403.6</ele>
        <time>2025-03-27T14:49:28Z</time>
      </trkpt>
      <trkpt lat="45.2384" lon="5.80307">
        <ele>403.2</ele>
        <time>2025-03-27T14:49:29Z</time>
      </trkpt>
      <trkpt lat="45.23837" lon="5.80313">
        <ele>403.2</ele>
        <time>2025-03-27T14:49:30Z</time>
      </trkpt>
      <trkpt lat="45.23833" lon="5.80317">
        <ele>402.9</ele>
        <time>2025-03-27T14:49:31Z</time>
      </trkpt>
      <trkpt lat="45.23829" lon="5.80321">
        <ele>401.7</ele>
        <time>2025-03-27T14:49:32Z</time>
      </trkpt>
      <trkpt lat="45.23822" lon="5.80329">
        <ele>401</ele>
        <time>2025-03-27T14:49:34Z</time>
      </trkpt>
      <trkpt lat="45.23815" lon="5.80336">
        <ele>399.2</ele>
        <time>2025-03-27T14:49:36Z</time>
      </trkpt>
      <trkpt lat="45.23811" lon="5.8034">
        <ele>398.4</ele>
        <time>2025-03-27T14:49:37Z</time>
      </trkpt>
      <trkpt lat="45.23805" lon="5.80345">
        <ele>397.2</ele>
        <time>2025-03-27T14:49:39Z</time>
      </trkpt>
      <trkpt lat="45.23799" lon="5.80344">
        <ele>396.8</ele>
        <time>2025-03-27T14:49:41Z</time>
      </trkpt>
      <trkpt lat="45.23793" lon="5.80336">
        <ele>395.9</ele>
        <time>2025-03-27T14:49:43Z</time>
      </trkpt>
      <trkpt lat="45.23788" lon="5.80327">
        <ele>395.3</ele>
        <time>2025-03-27T14:49:45Z</time>
      </trkpt>
      <trkpt lat="45.23783" lon="5.80319">
        <ele>394.4</ele>
        <time>2025-03-27T14:49:48Z</time>
      </trkpt>
      <trkpt lat="45.2378" lon="5.8031">
        <ele>394.2</ele>
        <time>2025-03-27T14:49:49Z</time>
      </trkpt>
      <trkpt lat="45.23776" lon="5.80303">
        <ele>394</ele>
        <time>2025-03-27T14:49:51Z</time>
      </trkpt>
      <trkpt lat="45.23773" lon="5.80298">
        <ele>393.3</ele>
        <time>2025-03-27T14:49:53Z</time>
      </trkpt>
      <trkpt lat="45.23769" lon="5.803">
        <ele>394.4</ele>
        <time>2025-03-27T14:50:03Z</time>
      </trkpt>
      <trkpt lat="45.23766" lon="5.80293">
        <ele>395</ele>
        <time>2025-03-27T14:50:09Z</time>
      </trkpt>
      <trkpt lat="45.23764" lon="5.80286">
        <ele>395.7</ele>
        <time>2025-03-27T14:50:13Z</time>
      </trkpt>
      <trkpt lat="45.23762" lon="5.80279">
        <ele>397.3</ele>
        <time>2025-03-27T14:50:18Z</time>
      </trkpt>
      <trkpt lat="45.23761" lon="5.80271">
        <ele>398.2</ele>
        <time>2025-03-27T14:50:23Z</time>
      </trkpt>
      <trkpt lat="45.23761" lon="5.80264">
        <ele>399.9</ele>
        <time>2025-03-27T14:50:29Z</time>
      </trkpt>
    </trkseg>
  </trk>
</gpx>